createdAt,value
2017-11-15T00:01:05.595Z,100533.16
2017-11-15T00:03:33.437Z,100533.09
2017-11-15T00:06:01.164Z,100537.02
2017-11-15T00:08:29.280Z,100540.06
2017-11-15T00:10:57.011Z,100536.94
2017-11-15T00:13:24.704Z,100537.42
2017-11-15T00:15:53.153Z,100532.63
2017-11-15T00:18:20.935Z,100534.66
2017-11-15T00:20:51.333Z,100535.65
2017-11-15T00:23:19.169Z,100534.23
2017-11-15T00:25:48.072Z,100541.13
2017-11-15T00:28:15.699Z,100542.96
2017-11-15T00:30:43.392Z,100548.53
2017-11-15T00:33:11.262Z,100544.48
2017-11-15T00:35:38.892Z,100545.45
2017-11-15T00:38:07.604Z,100554.09
2017-11-15T00:40:35.301Z,100550.14
2017-11-15T00:43:03.275Z,100544.86
2017-11-15T00:45:31.168Z,100544.52
2017-11-15T00:47:59.019Z,100540.66
2017-11-15T00:50:26.660Z,100540.32
2017-11-15T00:52:54.580Z,100548.53
2017-11-15T00:55:22.257Z,100545.61
2017-11-15T00:57:50.021Z,100550.40
2017-11-15T01:00:17.742Z,100552.09
2017-11-15T01:02:45.494Z,100549.95
2017-11-15T01:05:13.290Z,100550.83
2017-11-15T01:07:41.793Z,100548.38
2017-11-15T01:10:09.484Z,100555.19
2017-11-15T01:12:37.120Z,100553.97
2017-11-15T01:15:04.984Z,100560.59
2017-11-15T01:17:33.428Z,100560.13
2017-11-15T01:20:01.097Z,100556.68
2017-11-15T01:22:28.780Z,100546.00
2017-11-15T01:24:56.405Z,100549.19
2017-11-15T01:27:24.040Z,100549.00
2017-11-15T01:29:51.872Z,100540.47
2017-11-15T01:32:20.639Z,100550.09
2017-11-15T01:34:48.704Z,100543.34
2017-11-15T01:37:16.628Z,100551.86
2017-11-15T01:39:44.417Z,100550.06
2017-11-15T01:42:12.221Z,100559.48
2017-11-15T01:44:40.920Z,100565.36
2017-11-15T01:47:08.773Z,100555.47
2017-11-15T01:49:36.398Z,100548.64
2017-11-15T01:52:04.082Z,100550.41
2017-11-15T01:54:31.768Z,100552.02
2017-11-15T01:56:59.813Z,100553.05
2017-11-15T01:59:28.564Z,100559.03
2017-11-15T02:01:56.197Z,100557.88
2017-11-15T02:04:24.666Z,100551.89
2017-11-15T02:06:53.139Z,100551.28
2017-11-15T02:09:21.688Z,100552.49
2017-11-15T02:11:49.317Z,100550.80
2017-11-15T02:14:16.994Z,100554.41
2017-11-15T02:16:44.692Z,100547.50
2017-11-15T02:19:12.330Z,100551.80
2017-11-15T02:21:40.808Z,100555.92
2017-11-15T02:24:08.624Z,100558.73
2017-11-15T02:26:36.335Z,100566.00
2017-11-15T02:29:04.096Z,100558.08
2017-11-15T02:31:31.736Z,100559.08
2017-11-15T02:33:59.490Z,100561.35
2017-11-15T02:36:27.329Z,100564.73
2017-11-15T02:38:55.067Z,100559.16
2017-11-15T02:41:22.757Z,100560.59
2017-11-15T02:43:50.530Z,100563.62
2017-11-15T02:46:18.308Z,100573.91
2017-11-15T02:48:45.968Z,100576.09
2017-11-15T02:51:14.502Z,100571.14
2017-11-15T02:53:42.136Z,100570.03
2017-11-15T02:56:10.688Z,100564.57
2017-11-15T02:58:38.403Z,100561.48
2017-11-15T03:01:06.105Z,100561.77
2017-11-15T03:03:33.837Z,100569.37
2017-11-15T03:06:02.405Z,100568.70
2017-11-15T03:08:30.212Z,100563.33
2017-11-15T03:10:57.955Z,100567.31
2017-11-15T03:13:25.876Z,100572.00
2017-11-15T03:15:53.567Z,100571.77
2017-11-15T03:18:21.293Z,100575.11
2017-11-15T03:20:49.123Z,100585.72
2017-11-15T03:23:16.827Z,100583.61
2017-11-15T03:25:44.461Z,100589.52
2017-11-15T03:28:12.348Z,100586.94
2017-11-15T03:30:40.114Z,100587.94
2017-11-15T03:33:07.903Z,100591.39
2017-11-15T03:35:35.813Z,100592.47
2017-11-15T03:38:06.549Z,100594.66
2017-11-15T03:40:34.200Z,100593.77
2017-11-15T03:43:02.191Z,100593.45
2017-11-15T03:45:29.895Z,100597.80
2017-11-15T03:47:57.544Z,100595.53
2017-11-15T03:50:25.295Z,100589.72
2017-11-15T03:52:53.154Z,100591.99
2017-11-15T03:55:20.899Z,100585.38
2017-11-15T03:57:49.519Z,100593.03
2017-11-15T04:00:17.298Z,100588.97
2017-11-15T04:02:44.936Z,100589.78
2017-11-15T04:05:12.698Z,100592.13
2017-11-15T04:07:40.329Z,100592.11
2017-11-15T04:10:07.973Z,100589.66
2017-11-15T04:12:35.717Z,100587.47
2017-11-15T04:15:03.401Z,100595.93
2017-11-15T04:17:31.024Z,100600.97
2017-11-15T04:19:58.809Z,100598.89
2017-11-15T04:22:26.436Z,100597.40
2017-11-15T04:24:54.064Z,100604.81
2017-11-15T04:27:21.785Z,100609.81
2017-11-15T04:29:49.487Z,100613.92
2017-11-15T04:32:17.961Z,100618.53
2017-11-15T04:34:45.724Z,100620.84
2017-11-15T04:37:13.408Z,100622.11
2017-11-15T04:39:41.159Z,100626.56
2017-11-15T04:42:08.839Z,100627.56
2017-11-15T04:44:36.515Z,100640.61
2017-11-15T04:47:04.269Z,100634.31
2017-11-15T04:49:32.166Z,100637.62
2017-11-15T04:52:00.639Z,100632.92
2017-11-15T04:54:28.408Z,100641.11
2017-11-15T04:56:56.396Z,100646.69
2017-11-15T04:59:24.164Z,100649.38
2017-11-15T05:01:54.624Z,100651.06
2017-11-15T05:04:22.307Z,100659.16
2017-11-15T05:06:50.024Z,100658.47
2017-11-15T05:09:17.646Z,100659.36
2017-11-15T05:11:45.388Z,100669.46
2017-11-15T05:14:13.105Z,100678.80
2017-11-15T05:16:41.043Z,100681.27
2017-11-15T05:19:08.728Z,100683.56
2017-11-15T05:21:36.520Z,100685.03
2017-11-15T05:24:04.137Z,100689.94
2017-11-15T05:26:31.876Z,100695.28
2017-11-15T05:28:59.568Z,100691.91
2017-11-15T05:31:27.196Z,100704.61
2017-11-15T05:33:54.948Z,100710.82
2017-11-15T05:36:22.593Z,100703.41
2017-11-15T05:38:50.228Z,100708.25
2017-11-15T05:41:17.972Z,100709.61
2017-11-15T05:43:45.599Z,100722.69
2017-11-15T05:46:13.228Z,100720.80
2017-11-15T05:48:40.969Z,100724.05
2017-11-15T05:51:08.604Z,100722.14
2017-11-15T05:53:36.300Z,100723.58
2017-11-15T05:56:04.000Z,100722.73
2017-11-15T05:58:31.689Z,100726.77
2017-11-15T06:00:59.324Z,100734.09
2017-11-15T06:03:27.067Z,100733.12
2017-11-15T06:05:54.696Z,100734.38
2017-11-15T06:08:22.386Z,100728.66
2017-11-15T06:10:50.157Z,100729.56
2017-11-15T06:13:17.827Z,100724.23
2017-11-15T06:15:45.535Z,100738.82
2017-11-15T06:18:13.326Z,100744.56
2017-11-15T06:20:40.959Z,100747.97
2017-11-15T06:23:08.632Z,100752.13
2017-11-15T06:25:36.507Z,100758.13
2017-11-15T06:28:04.140Z,100757.84
2017-11-15T06:30:31.870Z,100770.30
2017-11-15T06:32:59.504Z,100763.56
2017-11-15T06:35:27.276Z,100761.30
2017-11-15T06:37:54.935Z,100763.64
2017-11-15T06:40:22.657Z,100765.06
2017-11-15T06:42:50.271Z,100765.28
2017-11-15T06:45:17.913Z,100759.90
2017-11-15T06:47:45.593Z,100769.44
2017-11-15T06:50:13.236Z,100775.40
2017-11-15T06:52:40.937Z,100775.80
2017-11-15T06:55:08.685Z,100779.20
2017-11-15T06:57:36.375Z,100778.49
2017-11-15T07:00:04.117Z,100776.31
2017-11-15T07:02:31.787Z,100785.90
2017-11-15T07:04:59.416Z,100784.30
2017-11-15T07:07:27.041Z,100783.59
2017-11-15T07:09:54.706Z,100787.20
2017-11-15T07:12:22.401Z,100783.72
2017-11-15T07:14:50.095Z,100784.23
2017-11-15T07:17:17.788Z,100788.13
2017-11-15T07:19:45.429Z,100800.42
2017-11-15T07:22:13.073Z,100807.48
2017-11-15T07:24:40.833Z,100809.05
2017-11-15T07:27:08.460Z,100813.05
2017-11-15T07:29:36.085Z,100814.48
2017-11-15T07:32:03.764Z,100816.22
2017-11-15T07:34:31.448Z,100815.91
2017-11-15T07:36:59.083Z,100821.63
2017-11-15T07:39:26.796Z,100822.12
2017-11-15T07:41:54.494Z,100827.52
2017-11-15T07:44:22.119Z,100829.84
2017-11-15T07:46:49.793Z,100830.25
2017-11-15T07:49:17.436Z,100823.95
2017-11-15T07:51:45.178Z,100830.82
2017-11-15T07:54:12.937Z,100838.45
2017-11-15T07:56:40.612Z,100832.84
2017-11-15T07:59:08.232Z,100833.93
2017-11-15T08:01:35.901Z,100835.39
2017-11-15T08:04:03.542Z,100834.20
2017-11-15T08:06:31.169Z,100834.34
2017-11-15T08:08:58.960Z,100837.80
2017-11-15T08:11:26.692Z,100843.53
2017-11-15T08:13:54.324Z,100845.67
2017-11-15T08:16:22.008Z,100846.44
2017-11-15T08:18:49.641Z,100844.89
2017-11-15T08:21:17.272Z,100844.05
2017-11-15T08:23:44.997Z,100845.38
2017-11-15T08:26:12.625Z,100852.04
2017-11-15T08:28:40.313Z,100861.92
2017-11-15T08:31:08.034Z,100856.51
2017-11-15T08:33:35.676Z,100853.30
2017-11-15T08:36:03.311Z,100852.19
2017-11-15T08:38:30.999Z,100858.86
2017-11-15T08:40:58.637Z,100854.33
2017-11-15T08:43:26.256Z,100860.72
2017-11-15T08:45:53.924Z,100852.52
2017-11-15T08:48:21.555Z,100852.92
2017-11-15T08:50:49.256Z,100852.77
2017-11-15T08:53:16.979Z,100852.92
2017-11-15T08:55:44.673Z,100845.70
2017-11-15T08:58:12.297Z,100850.23
2017-11-15T09:00:40.033Z,100844.43
2017-11-15T09:03:07.720Z,100838.69
2017-11-15T09:05:35.348Z,100836.38
2017-11-15T09:08:03.909Z,100835.69
2017-11-15T09:10:31.538Z,100836.19
2017-11-15T09:12:59.161Z,100833.13
2017-11-15T09:15:26.896Z,100841.06
2017-11-15T09:17:54.512Z,100847.08
2017-11-15T09:20:22.137Z,100848.34
2017-11-15T09:22:49.876Z,100852.66
2017-11-15T09:25:17.497Z,100848.25
2017-11-15T09:27:45.165Z,100850.44
2017-11-15T09:30:12.845Z,100852.38
2017-11-15T09:32:40.533Z,100858.02
2017-11-15T09:35:08.166Z,100849.56
2017-11-15T09:37:35.842Z,100853.69
2017-11-15T09:40:03.475Z,100846.78
2017-11-15T09:42:31.162Z,100852.77
2017-11-15T09:44:58.957Z,100850.19
2017-11-15T09:47:26.584Z,100841.95
2017-11-15T09:49:54.260Z,100845.87
2017-11-15T09:52:21.965Z,100847.22
2017-11-15T09:54:49.588Z,100849.97
2017-11-15T09:57:17.208Z,100845.98
2017-11-15T09:59:44.982Z,100844.99
2017-11-15T10:02:12.665Z,100837.61
2017-11-15T10:04:40.345Z,100836.91
2017-11-15T10:07:08.009Z,100839.68
2017-11-15T10:09:35.644Z,100853.11
2017-11-15T10:12:03.330Z,100859.27
2017-11-15T10:14:31.057Z,100856.66
2017-11-15T10:17:07.338Z,100853.14
2017-11-15T10:19:35.086Z,100853.45
2017-11-15T10:22:02.714Z,100855.72
2017-11-15T10:24:30.338Z,100849.14
2017-11-15T10:26:58.078Z,100850.69
2017-11-15T10:29:25.768Z,100855.03
2017-11-15T10:31:53.460Z,100861.50
2017-11-15T10:34:21.132Z,100863.00
2017-11-15T10:36:48.764Z,100855.92
2017-11-15T10:39:16.440Z,100864.46
2017-11-15T10:41:44.178Z,100865.95
2017-11-15T10:44:11.805Z,100869.50
2017-11-15T10:46:39.451Z,100869.23
2017-11-15T10:49:07.121Z,100866.05
2017-11-15T10:51:34.742Z,100866.72
2017-11-15T10:54:02.473Z,100873.52
2017-11-15T10:56:30.156Z,100874.97
2017-11-15T10:58:57.840Z,100871.47
2017-11-15T11:01:25.533Z,100869.81
2017-11-15T11:03:53.226Z,100864.96
2017-11-15T11:06:20.884Z,100866.12
2017-11-15T11:08:48.523Z,100870.94
2017-11-15T11:11:16.202Z,100864.39
2017-11-15T11:13:43.889Z,100860.69
2017-11-15T11:16:11.513Z,100852.03
2017-11-15T11:18:39.198Z,100851.45
2017-11-15T11:21:06.828Z,100852.69
2017-11-15T11:23:34.519Z,100850.34
2017-11-15T11:26:02.196Z,100855.42
2017-11-15T11:28:29.817Z,100851.17
2017-11-15T11:30:57.516Z,100845.83
2017-11-15T11:33:25.264Z,100842.48
2017-11-15T11:35:52.889Z,100845.78
2017-11-15T11:38:20.501Z,100849.25
2017-11-15T11:40:48.172Z,100848.14
2017-11-15T11:43:15.846Z,100833.75
2017-11-15T11:45:43.474Z,100833.13
2017-11-15T11:48:11.149Z,100840.41
2017-11-15T11:50:38.773Z,100835.72
2017-11-15T11:53:06.454Z,100835.67
2017-11-15T11:55:34.140Z,100840.89
2017-11-15T11:58:01.826Z,100844.70
2017-11-15T12:00:29.469Z,100844.28
2017-11-15T12:02:57.236Z,100846.11
2017-11-15T12:05:24.929Z,100844.11
2017-11-15T12:07:52.555Z,100841.75
2017-11-15T12:10:20.244Z,100844.48
2017-11-15T12:12:47.873Z,100844.03
2017-11-15T12:15:15.505Z,100850.61
2017-11-15T12:17:43.181Z,100845.72
2017-11-15T12:20:10.807Z,100841.88
2017-11-15T12:22:38.428Z,100847.66
2017-11-15T12:25:06.894Z,100850.52
2017-11-15T12:27:34.569Z,100841.23
2017-11-15T12:30:02.249Z,100843.87
2017-11-15T12:32:30.050Z,100850.19
2017-11-15T12:34:57.742Z,100848.16
2017-11-15T12:37:25.421Z,100858.05
2017-11-15T12:39:53.081Z,100856.91
2017-11-15T12:42:20.716Z,100858.69
2017-11-15T12:44:48.404Z,100857.83
2017-11-15T12:47:16.095Z,100856.19
2017-11-15T12:49:43.786Z,100853.08
2017-11-15T12:52:11.476Z,100852.66
2017-11-15T12:54:39.168Z,100849.83
2017-11-15T12:57:06.822Z,100854.73
2017-11-15T12:59:34.449Z,100855.00
2017-11-15T13:02:02.130Z,100842.17
2017-11-15T13:04:29.829Z,100840.98
2017-11-15T13:06:57.445Z,100841.78
2017-11-15T13:09:25.132Z,100837.91
2017-11-15T13:11:52.817Z,100845.22
2017-11-15T13:14:20.508Z,100840.18
2017-11-15T13:16:48.220Z,100842.59
2017-11-15T13:19:15.852Z,100838.49
2017-11-15T13:21:43.509Z,100836.31
2017-11-15T13:24:11.184Z,100838.55
2017-11-15T13:26:38.866Z,100840.44
2017-11-15T13:29:06.517Z,100841.73
2017-11-15T13:31:34.190Z,100840.09
2017-11-15T13:34:01.814Z,100843.51
2017-11-15T13:36:29.521Z,100842.66
2017-11-15T13:38:57.206Z,100840.37
2017-11-15T13:41:24.828Z,100839.73
2017-11-15T13:43:52.458Z,100836.05
2017-11-15T13:46:20.171Z,100842.23
2017-11-15T13:48:47.801Z,100841.28
2017-11-15T13:51:15.429Z,100838.36
2017-11-15T13:53:43.121Z,100846.08
2017-11-15T13:56:10.816Z,100851.75
2017-11-15T13:58:38.498Z,100849.19
2017-11-15T14:01:06.183Z,100847.84
2017-11-15T14:03:33.879Z,100847.21
2017-11-15T14:06:01.517Z,100846.42
2017-11-15T14:08:29.286Z,100846.99
2017-11-15T14:10:56.928Z,100851.38
2017-11-15T14:13:24.545Z,100853.37
2017-11-15T14:15:52.279Z,100849.06
2017-11-15T14:18:19.925Z,100851.33
2017-11-15T14:20:47.624Z,100847.91
2017-11-15T14:23:15.344Z,100855.58
2017-11-15T14:25:42.969Z,100857.05
2017-11-15T14:28:10.598Z,100856.28
2017-11-15T14:30:38.290Z,100856.50
2017-11-15T14:33:05.975Z,100856.15
2017-11-15T14:35:33.605Z,100853.14
2017-11-15T14:38:01.308Z,100855.28
2017-11-15T14:40:29.001Z,100855.55
2017-11-15T14:42:56.629Z,100855.58
2017-11-15T14:45:24.369Z,100853.44
2017-11-15T14:47:52.062Z,100853.95
2017-11-15T14:50:19.701Z,100850.89
2017-11-15T14:52:47.392Z,100859.53
2017-11-15T14:55:15.018Z,100855.83
2017-11-15T14:57:42.641Z,100855.08
2017-11-15T15:00:10.337Z,100854.57
2017-11-15T15:02:38.075Z,100860.94
2017-11-15T15:05:05.708Z,100867.67
2017-11-15T15:07:33.428Z,100863.56
2017-11-15T15:10:01.121Z,100867.85
2017-11-15T15:12:28.787Z,100860.20
2017-11-15T15:14:56.524Z,100862.70
2017-11-15T15:17:24.160Z,100862.91
2017-11-15T15:19:51.781Z,100860.28
2017-11-15T15:22:19.450Z,100856.17
2017-11-15T15:24:47.197Z,100862.83
2017-11-15T15:27:14.873Z,100864.19
2017-11-15T15:29:42.555Z,100863.19
2017-11-15T15:32:10.178Z,100867.84
2017-11-15T15:34:37.809Z,100870.95
2017-11-15T15:37:05.537Z,100865.31
2017-11-15T15:39:33.226Z,100863.00
2017-11-15T15:42:00.874Z,100871.20
2017-11-15T15:44:28.630Z,100875.97
2017-11-15T15:46:56.270Z,100879.25
2017-11-15T15:49:23.984Z,100876.38
2017-11-15T15:51:51.665Z,100883.00
2017-11-15T15:54:19.352Z,100882.72
2017-11-15T15:56:47.050Z,100883.64
2017-11-15T15:59:14.750Z,100880.63
2017-11-15T16:01:42.447Z,100883.66
2017-11-15T16:04:10.076Z,100890.13
2017-11-15T16:06:37.881Z,100894.77
2017-11-15T16:09:05.564Z,100890.25
2017-11-15T16:11:33.216Z,100891.03
2017-11-15T16:14:00.927Z,100895.67
2017-11-15T16:16:28.565Z,100894.75
2017-11-15T16:18:56.192Z,100894.09
2017-11-15T16:21:23.877Z,100898.20
2017-11-15T16:23:52.443Z,100897.31
2017-11-15T16:26:20.133Z,100903.04
2017-11-15T16:28:47.827Z,100902.00
2017-11-15T16:31:15.516Z,100904.39
2017-11-15T16:33:43.153Z,100911.95
2017-11-15T16:36:10.922Z,100899.73
2017-11-15T16:38:38.631Z,100903.95
2017-11-15T16:41:06.316Z,100903.02
2017-11-15T16:43:34.002Z,100906.94
2017-11-15T16:46:01.696Z,100913.60
2017-11-15T16:48:29.316Z,100911.87
2017-11-15T16:50:57.049Z,100910.11
2017-11-15T16:53:24.669Z,100914.31
2017-11-15T16:55:52.297Z,100911.91
2017-11-15T16:58:19.965Z,100903.06
2017-11-15T17:00:47.593Z,100904.06
2017-11-15T17:03:15.220Z,100902.20
2017-11-15T17:05:42.947Z,100901.00
2017-11-15T17:08:10.569Z,100893.57
2017-11-15T17:10:38.200Z,100889.39
2017-11-15T17:13:05.875Z,100894.19
2017-11-15T17:15:33.553Z,100892.11
2017-11-15T17:18:01.220Z,100899.69
2017-11-15T17:20:28.883Z,100905.16
2017-11-15T17:22:56.565Z,100901.03
2017-11-15T17:25:24.236Z,100892.04
2017-11-15T17:27:51.913Z,100882.78
2017-11-15T17:30:19.609Z,100883.38
2017-11-15T17:32:47.358Z,100885.91
2017-11-15T17:35:15.099Z,100886.42
2017-11-15T17:37:42.773Z,100882.43
2017-11-15T17:40:10.461Z,100882.59
2017-11-15T17:42:38.142Z,100884.98
2017-11-15T17:45:05.760Z,100889.72
2017-11-15T17:47:33.471Z,100886.09
2017-11-15T17:50:01.157Z,100884.53
2017-11-15T17:52:28.789Z,100885.10
2017-11-15T17:54:56.415Z,100884.83
2017-11-15T17:57:24.195Z,100888.83
2017-11-15T17:59:51.853Z,100890.94
2017-11-15T18:02:19.564Z,100891.22
2017-11-15T18:04:47.287Z,100897.87
2017-11-15T18:07:14.975Z,100900.14
2017-11-15T18:09:42.630Z,100902.98
2017-11-15T18:12:10.402Z,100898.75
2017-11-15T18:14:38.245Z,100902.58
2017-11-15T18:17:05.880Z,100899.88
2017-11-15T18:19:33.617Z,100900.05
2017-11-15T18:22:01.350Z,100903.92
2017-11-15T18:24:28.976Z,100908.34
2017-11-15T18:26:56.740Z,100922.09
2017-11-15T18:29:24.436Z,100911.48
2017-11-15T18:31:52.121Z,100906.84
2017-11-15T18:34:19.902Z,100904.95
2017-11-15T18:36:47.535Z,100901.83
2017-11-15T18:39:15.170Z,100905.18
2017-11-15T18:41:42.916Z,100904.66
2017-11-15T18:44:10.597Z,100910.06
2017-11-15T18:46:38.225Z,100916.09
2017-11-15T18:49:05.893Z,100914.08
2017-11-15T18:51:33.505Z,100916.42
2017-11-15T18:54:01.267Z,100920.98
2017-11-15T18:56:29.014Z,100920.90
2017-11-15T18:58:56.712Z,100929.12
2017-11-15T19:01:24.345Z,100929.16
2017-11-15T19:03:52.038Z,100927.67
2017-11-15T19:06:19.681Z,100933.46
2017-11-15T19:08:47.330Z,100935.88
2017-11-15T19:11:15.068Z,100938.87
2017-11-15T19:13:42.697Z,100932.73
2017-11-15T19:16:10.388Z,100936.95
2017-11-15T19:18:38.086Z,100940.13
2017-11-15T19:21:05.715Z,100934.69
2017-11-15T19:23:33.392Z,100931.30
2017-11-15T19:26:01.072Z,100930.39
2017-11-15T19:28:28.688Z,100931.72
2017-11-15T19:30:56.309Z,100925.86
2017-11-15T19:33:23.976Z,100922.45
2017-11-15T19:35:51.658Z,100930.09
2017-11-15T19:38:19.281Z,100931.34
2017-11-15T19:40:46.957Z,100932.77
2017-11-15T19:43:14.649Z,100926.03
2017-11-15T19:45:42.286Z,100931.64
2017-11-15T19:48:09.965Z,100943.69
2017-11-15T19:50:37.591Z,100934.31
2017-11-15T19:53:05.212Z,100931.97
2017-11-15T19:55:32.940Z,100940.98
2017-11-15T19:58:00.556Z,100946.05
2017-11-15T20:00:28.179Z,100942.74
2017-11-15T20:02:55.856Z,100952.09
2017-11-15T20:05:23.571Z,100949.05
2017-11-15T20:07:51.249Z,100946.64
2017-11-15T20:10:18.947Z,100950.49
2017-11-15T20:12:46.647Z,100954.01
2017-11-15T20:15:14.329Z,100950.69
2017-11-15T20:17:42.004Z,100957.84
2017-11-15T20:20:09.645Z,100951.95
2017-11-15T20:22:37.429Z,100958.12
2017-11-15T20:25:05.133Z,100955.70
2017-11-15T20:27:32.768Z,100962.08
2017-11-15T20:30:00.457Z,100961.58
2017-11-15T20:32:28.214Z,100963.70
2017-11-15T20:34:55.849Z,100962.22
2017-11-15T20:37:23.504Z,100960.25
2017-11-15T20:39:51.176Z,100953.88
2017-11-15T20:42:18.810Z,100957.27
2017-11-15T20:44:46.477Z,100953.45
2017-11-15T20:47:14.255Z,100961.34
2017-11-15T20:49:41.895Z,100950.75
2017-11-15T20:52:09.530Z,100949.91
2017-11-15T20:54:37.229Z,100953.95
2017-11-15T20:57:04.869Z,100952.89
2017-11-15T20:59:32.588Z,100957.14
2017-11-15T21:02:00.452Z,100952.80
2017-11-15T21:04:28.163Z,100954.48
2017-11-15T21:06:55.807Z,100948.27
2017-11-15T21:09:23.488Z,100950.03
2017-11-15T21:11:51.173Z,100952.97
2017-11-15T21:14:18.840Z,100950.20
2017-11-15T21:16:46.505Z,100948.22
2017-11-15T21:19:14.120Z,100954.50
2017-11-15T21:21:41.732Z,100955.59
2017-11-15T21:24:09.432Z,100960.17
2017-11-15T21:26:37.045Z,100963.91
2017-11-15T21:29:04.729Z,100969.09
2017-11-15T21:31:32.417Z,100966.83
2017-11-15T21:34:00.098Z,100962.73
2017-11-15T21:36:27.797Z,100962.37
2017-11-15T21:38:55.533Z,100965.55
2017-11-15T21:41:23.154Z,100961.09
2017-11-15T21:43:50.777Z,100965.27
2017-11-15T21:46:18.475Z,100967.84
2017-11-15T21:48:46.162Z,100973.63
2017-11-15T21:51:13.845Z,100972.02
2017-11-15T21:53:41.584Z,100966.07
2017-11-15T21:56:09.231Z,100963.66
2017-11-15T21:58:36.856Z,100959.47
2017-11-15T22:01:04.563Z,100952.09
2017-11-15T22:03:32.197Z,100956.20
2017-11-15T22:05:59.823Z,100954.11
2017-11-15T22:08:27.557Z,100962.28
2017-11-15T22:10:55.237Z,100961.95
2017-11-15T22:13:22.873Z,100960.69
2017-11-15T22:15:50.606Z,100963.52
2017-11-15T22:18:18.234Z,100958.56
2017-11-15T22:20:45.866Z,100954.30
2017-11-15T22:23:13.600Z,100958.62
2017-11-15T22:25:41.274Z,100962.50
2017-11-15T22:28:08.891Z,100954.93
2017-11-15T22:30:36.658Z,100950.77
2017-11-15T22:33:04.287Z,100939.73
2017-11-15T22:35:31.908Z,100947.30
2017-11-15T22:37:59.591Z,100944.11
2017-11-15T22:40:27.229Z,100941.27
2017-11-15T22:42:54.906Z,100945.66
2017-11-15T22:45:22.575Z,100946.78
2017-11-15T22:47:50.197Z,100938.86
2017-11-15T22:50:17.818Z,100933.97
2017-11-15T22:52:45.557Z,100930.20
2017-11-15T22:55:13.176Z,100925.09
2017-11-15T22:57:40.795Z,100929.36
2017-11-15T23:00:08.617Z,100925.47
2017-11-15T23:02:36.293Z,100924.51
2017-11-15T23:05:03.976Z,100924.21
2017-11-15T23:07:31.657Z,100926.69
2017-11-15T23:09:59.292Z,100927.73
2017-11-15T23:12:26.976Z,100920.94
2017-11-15T23:14:54.702Z,100926.24
2017-11-15T23:17:22.323Z,100930.01
2017-11-15T23:19:49.948Z,100920.44
2017-11-15T23:22:17.673Z,100925.25
2017-11-15T23:24:45.357Z,100918.17
2017-11-15T23:27:12.984Z,100918.86
2017-11-15T23:29:40.708Z,100918.02
2017-11-15T23:32:08.330Z,100920.81
2017-11-15T23:34:35.950Z,100926.67
2017-11-15T23:37:03.653Z,100922.13
2017-11-15T23:39:31.280Z,100926.02
2017-11-15T23:41:58.904Z,100919.02
2017-11-15T23:44:26.613Z,100917.52
2017-11-15T23:46:54.295Z,100925.59
2017-11-15T23:49:21.977Z,100926.52
2017-11-15T23:51:49.676Z,100928.02
2017-11-15T23:54:17.305Z,100928.64
2017-11-15T23:56:44.944Z,100936.44
2017-11-15T23:59:12.678Z,100931.91
